KSIK/SIK METAR and TAF weather

Enter ICAO airport designator
Station Type Date Time Source
KSIK METAR 2020/09/18 23:55 UTC NOAA

KSIK 182355Z AUTO 01006KT 10SM CLR 20/11 A3019 RMK AO2


Station Type Date Time Source
KSIK Decoded METAR 2020/09/18 23:55 UTC NOAA

Station name not available
Sep 18, 2020 - 07:55 PM EDT / 2020.09.18 2355 UTC
Wind: from the N (010 degrees) at 7 MPH (6 KT):0
Visibility: 10 mile(s):0
Sky conditions: clear
Temperature: 68 F (20 C)
Dew Point: 51 F (11 C)
Relative Humidity: 56%
Pressure (altimeter): 30.19 in. Hg (1022 hPa)
ob: KSIK 182355Z AUTO 01006KT 10SM CLR 20/11 A3019 RMK AO2
cycle: 0

Station Type Date Time Source
KSIK TAF UTC NOAA

Error!

Example: see airport list